Senatobia, MS

12:22 AM CDT ye 31 July, 2016 (GMT -0500)
NWCC - RC Pugh Library | | Change Station

Elev 289 ft 34.63 °N, 89.97 °W | Updated 13 seconds ago

Clear
Klara
78.3 °F
Feels Like 81 °F
N
0.0
Vento Variema Vento from SW
Gusts 0.0 mph

Hodie
High -- | Low -- °F
--% Chance of Precip.
Yesterday
High -- | Low -- °F
Precip. -- in
Presuro 29.98 in
Videbleso 10.0 milii
Clouds Klara
Indexo di Varmeso 81 °F
Rosifopunto 71 °F
Humideso 79%
Rainfall 0.00 in
Snow Depth Not available.
6:10 AM 8:02 PM
Waning Crescent, 8% visible
METAR KUTA 310515Z AUTO 00000KT 10SM CLR 23/22 A2998 RMK AO2 TSNO
Presuro 29.98 in
Videbleso 10.0 milii
Clouds Klara
Indexo di Varmeso 81 °F
Rosifopunto 71 °F
Humideso 79%
Rainfall 0.00 in
Snow Depth Not available.
6:10 AM 8:02 PM
Waning Crescent, 8% visible
METAR KUTA 310515Z AUTO 00000KT 10SM CLR 23/22 A2998 RMK AO2 TSNO

10-Day Weather Forecast

Almanac

Astronomy

Jul. 31, 2016 Rise Set
Actual Time
Civil Twilight
Nautical Twilight
Astronomical Twilight
Moon
Length Of Visible Light
Length of Day
Tomorrow will be .
, % of the Moon is Illuminated

Today's Extremes

State Highs State Lows

Community

WunderPhotos

Upload Photos

1,928,764 photos uploaded!

WunderBlog® & News

Nearby

Air Quality

  Air Quality AQ Index Pollutant
Not available.

Snow Depth

Station Depth Elevation

Earthquake Activity

City Distance Mag. Time & Date
Minimum magnitude displayed is 2.5.

Coastal Water Temperatures

Loko Temperaturo

Stations

Nearby Weather Stations

Station Location Temp Ventokoldeso Rosifopunto Humideso Vento Precip. Elev Aktualigita Type
                   

Watches & Warnings

There are currently no watches in effect.